sensor_id;sensor_type;location;lat;lon;timestamp;temperature;humidity
11142;DHT22;5625;50.122;19.864;2023-01-08T03:12:47;5.80;99.90
11142;DHT22;5625;50.122;19.864;2023-01-08T03:15:23;3.20;99.90
11142;DHT22;5625;50.122;19.864;2023-01-08T03:17:56;3.10;99.90
11142;DHT22;5625;50.122;19.864;2023-01-08T03:20:25;3.10;99.90
11142;DHT22;5625;50.122;19.864;2023-01-08T03:22:56;3.10;99.90
11142;DHT22;5625;50.122;19.864;2023-01-08T03:25:27;3.10;99.90
11142;DHT22;5625;50.122;19.864;2023-01-08T03:28:01;3.00;99.90
11142;DHT22;5625;50.122;19.864;2023-01-08T03:30:30;3.00;99.90
11142;DHT22;5625;50.122;19.864;2023-01-08T03:32:59;3.00;99.90
11142;DHT22;5625;50.122;19.864;2023-01-08T03:35:28;3.00;99.90
11142;DHT22;5625;50.122;19.864;2023-01-08T03:38:03;3.00;99.90
11142;DHT22;5625;50.122;19.864;2023-01-08T03:40:38;2.90;99.90
11142;DHT22;5625;50.122;19.864;2023-01-08T03:43:09;2.90;99.90
11142;DHT22;5625;50.122;19.864;2023-01-08T03:45:38;2.90;99.90
11142;DHT22;5625;50.122;19.864;2023-01-08T03:48:09;2.90;99.90
11142;DHT22;5625;50.122;19.864;2023-01-08T03:50:39;2.90;99.90
11142;DHT22;5625;50.122;19.864;2023-01-08T03:53:09;2.90;99.90
11142;DHT22;5625;50.122;19.864;2023-01-08T03:55:37;2.90;99.90
11142;DHT22;5625;50.122;19.864;2023-01-08T03:58:05;2.90;99.90
11142;DHT22;5625;50.122;19.864;2023-01-08T04:00:35;2.90;99.90
11142;DHT22;5625;50.122;19.864;2023-01-08T04:03:03;2.90;99.90
11142;DHT22;5625;50.122;19.864;2023-01-08T04:05:31;2.80;99.90
11142;DHT22;5625;50.122;19.864;2023-01-08T04:08:00;2.80;99.90
11142;DHT22;5625;50.122;19.864;2023-01-08T04:10:28;2.80;99.90
11142;DHT22;5625;50.122;19.864;2023-01-08T04:12:57;2.80;99.90
11142;DHT22;5625;50.122;19.864;2023-01-08T04:15:25;2.80;99.90
11142;DHT22;5625;50.122;19.864;2023-01-08T04:17:55;2.80;99.90
11142;DHT22;5625;50.122;19.864;2023-01-08T04:20:23;2.80;99.90
11142;DHT22;5625;50.122;19.864;2023-01-08T04:22:51;2.80;99.90
11142;DHT22;5625;50.122;19.864;2023-01-08T04:25:19;2.80;99.90
11142;DHT22;5625;50.122;19.864;2023-01-08T04:27:47;2.80;99.90
11142;DHT22;5625;50.122;19.864;2023-01-08T04:30:15;2.80;99.90
11142;DHT22;5625;50.122;19.864;2023-01-08T04:32:43;2.70;99.90
11142;DHT22;5625;50.122;19.864;2023-01-08T04:35:13;2.70;99.90
11142;DHT22;5625;50.122;19.864;2023-01-08T04:37:41;2.70;99.90
11142;DHT22;5625;50.122;19.864;2023-01-08T04:40:10;2.70;99.90
11142;DHT22;5625;50.122;19.864;2023-01-08T04:42:38;2.70;99.90
11142;DHT22;5625;50.122;19.864;2023-01-08T04:45:07;2.80;99.90
11142;DHT22;5625;50.122;19.864;2023-01-08T04:47:35;2.70;99.90
11142;DHT22;5625;50.122;19.864;2023-01-08T04:50:03;2.70;99.90
11142;DHT22;5625;50.122;19.864;2023-01-08T04:52:33;2.70;99.90
11142;DHT22;5625;50.122;19.864;2023-01-08T04:55:01;2.70;99.90
11142;DHT22;5625;50.122;19.864;2023-01-08T04:57:29;2.70;99.90
11142;DHT22;5625;50.122;19.864;2023-01-08T04:59:57;2.70;99.90
11142;DHT22;5625;50.122;19.864;2023-01-08T05:02:25;2.60;99.90
11142;DHT22;5625;50.122;19.864;2023-01-08T05:04:53;2.60;99.90
11142;DHT22;5625;50.122;19.864;2023-01-08T05:07:21;2.60;99.90
11142;DHT22;5625;50.122;19.864;2023-01-08T05:09:51;2.50;99.90
11142;DHT22;5625;50.122;19.864;2023-01-08T05:12:19;2.50;99.90
11142;DHT22;5625;50.122;19.864;2023-01-08T05:14:47;2.50;99.90
11142;DHT22;5625;50.122;19.864;2023-01-08T05:17:15;2.50;99.90
11142;DHT22;5625;50.122;19.864;2023-01-08T05:19:43;2.50;99.90
11142;DHT22;5625;50.122;19.864;2023-01-08T05:22:11;2.50;99.90
11142;DHT22;5625;50.122;19.864;2023-01-08T05:24:39;2.50;99.90
11142;DHT22;5625;50.122;19.864;2023-01-08T05:27:09;2.50;99.90
11142;DHT22;5625;50.122;19.864;2023-01-08T05:29:37;2.50;99.90
11142;DHT22;5625;50.122;19.864;2023-01-08T05:32:05;2.40;99.90
11142;DHT22;5625;50.122;19.864;2023-01-08T05:34:40;2.40;99.90
11142;DHT22;5625;50.122;19.864;2023-01-08T05:37:08;2.40;99.90
11142;DHT22;5625;50.122;19.864;2023-01-08T05:39:36;2.40;99.90
11142;DHT22;5625;50.122;19.864;2023-01-08T05:42:05;2.40;99.90
11142;DHT22;5625;50.122;19.864;2023-01-08T05:44:34;2.30;99.90
11142;DHT22;5625;50.122;19.864;2023-01-08T05:47:02;2.40;99.90
11142;DHT22;5625;50.122;19.864;2023-01-08T05:49:30;2.30;99.90
11142;DHT22;5625;50.122;19.864;2023-01-08T05:51:58;2.30;99.90
11142;DHT22;5625;50.122;19.864;2023-01-08T05:54:26;2.30;99.90
11142;DHT22;5625;50.122;19.864;2023-01-08T05:56:55;2.30;99.90
11142;DHT22;5625;50.122;19.864;2023-01-08T05:59:23;2.30;99.90
11142;DHT22;5625;50.122;19.864;2023-01-08T06:01:53;2.30;99.90
11142;DHT22;5625;50.122;19.864;2023-01-08T06:04:21;2.30;99.90
11142;DHT22;5625;50.122;19.864;2023-01-08T06:06:49;2.30;99.90
11142;DHT22;5625;50.122;19.864;2023-01-08T06:09:17;2.30;99.90
11142;DHT22;5625;50.122;19.864;2023-01-08T06:11:46;2.30;99.90
11142;DHT22;5625;50.122;19.864;2023-01-08T06:14:15;2.20;99.90
11142;DHT22;5625;50.122;19.864;2023-01-08T06:16:43;2.30;99.90
11142;DHT22;5625;50.122;19.864;2023-01-08T06:19:13;2.30;99.90
11142;DHT22;5625;50.122;19.864;2023-01-08T06:21:44;2.20;99.90
11142;DHT22;5625;50.122;19.864;2023-01-08T06:24:12;2.30;99.90
11142;DHT22;5625;50.122;19.864;2023-01-08T06:26:40;2.20;99.90
11142;DHT22;5625;50.122;19.864;2023-01-08T06:29:08;2.20;99.90
11142;DHT22;5625;50.122;19.864;2023-01-08T06:31:36;2.10;99.90
11142;DHT22;5625;50.122;19.864;2023-01-08T06:34:04;2.10;99.90
11142;DHT22;5625;50.122;19.864;2023-01-08T06:36:34;2.10;99.90
11142;DHT22;5625;50.122;19.864;2023-01-08T06:39:04;2.10;99.90
11142;DHT22;5625;50.122;19.864;2023-01-08T06:41:32;2.10;99.90
11142;DHT22;5625;50.122;19.864;2023-01-08T06:44:01;2.10;99.90
11142;DHT22;5625;50.122;19.864;2023-01-08T06:46:29;2.10;99.90
11142;DHT22;5625;50.122;19.864;2023-01-08T06:48:57;2.10;99.90
11142;DHT22;5625;50.122;19.864;2023-01-08T06:51:25;2.10;99.90
11142;DHT22;5625;50.122;19.864;2023-01-08T06:53:56;2.10;99.90
11142;DHT22;5625;50.122;19.864;2023-01-08T06:56:24;2.10;99.90
11142;DHT22;5625;50.122;19.864;2023-01-08T06:58:52;2.20;99.90
11142;DHT22;5625;50.122;19.864;2023-01-08T07:01:21;2.20;99.90
11142;DHT22;5625;50.122;19.864;2023-01-08T07:03:49;2.20;99.90
11142;DHT22;5625;50.122;19.864;2023-01-08T07:06:19;2.20;99.90
11142;DHT22;5625;50.122;19.864;2023-01-08T07:08:51;2.20;99.90
11142;DHT22;5625;50.122;19.864;2023-01-08T07:11:20;2.20;99.90
11142;DHT22;5625;50.122;19.864;2023-01-08T07:13:48;2.30;99.90
11142;DHT22;5625;50.122;19.864;2023-01-08T07:16:17;2.30;99.90
11142;DHT22;5625;50.122;19.864;2023-01-08T07:18:45;2.30;99.90
11142;DHT22;5625;50.122;19.864;2023-01-08T07:21:13;2.30;99.90
11142;DHT22;5625;50.122;19.864;2023-01-08T07:23:41;2.30;99.90
11142;DHT22;5625;50.122;19.864;2023-01-08T07:26:11;2.30;99.90
11142;DHT22;5625;50.122;19.864;2023-01-08T07:28:41;2.30;99.90
11142;DHT22;5625;50.122;19.864;2023-01-08T07:31:09;2.40;99.90
11142;DHT22;5625;50.122;19.864;2023-01-08T07:33:37;2.40;99.90
11142;DHT22;5625;50.122;19.864;2023-01-08T07:36:06;2.40;99.90
11142;DHT22;5625;50.122;19.864;2023-01-08T07:38:34;2.40;99.90
11142;DHT22;5625;50.122;19.864;2023-01-08T07:41:02;2.40;99.90
11142;DHT22;5625;50.122;19.864;2023-01-08T07:43:31;2.40;99.90
11142;DHT22;5625;50.122;19.864;2023-01-08T07:46:03;2.50;99.90
11142;DHT22;5625;50.122;19.864;2023-01-08T07:48:31;2.50;99.90
11142;DHT22;5625;50.122;19.864;2023-01-08T07:51:00;2.50;99.90
11142;DHT22;5625;50.122;19.864;2023-01-08T07:53:29;2.60;99.90
11142;DHT22;5625;50.122;19.864;2023-01-08T07:56:00;2.80;99.90
11142;DHT22;5625;50.122;19.864;2023-01-08T07:58:28;3.00;99.90
11142;DHT22;5625;50.122;19.864;2023-01-08T08:00:57;3.20;99.90
11142;DHT22;5625;50.122;19.864;2023-01-08T08:03:26;3.40;99.90
11142;DHT22;5625;50.122;19.864;2023-01-08T08:05:55;3.50;99.90
11142;DHT22;5625;50.122;19.864;2023-01-08T08:08:23;3.60;99.90
11142;DHT22;5625;50.122;19.864;2023-01-08T08:10:51;3.90;99.90
11142;DHT22;5625;50.122;19.864;2023-01-08T08:13:19;4.30;99.90
11142;DHT22;5625;50.122;19.864;2023-01-08T08:15:47;4.50;99.90
11142;DHT22;5625;50.122;19.864;2023-01-08T08:18:16;4.80;99.90
11142;DHT22;5625;50.122;19.864;2023-01-08T08:20:46;5.30;99.90
11142;DHT22;5625;50.122;19.864;2023-01-08T08:23:19;5.60;99.90
11142;DHT22;5625;50.122;19.864;2023-01-08T08:25:47;6.10;99.90
11142;DHT22;5625;50.122;19.864;2023-01-08T08:28:17;6.60;99.90
11142;DHT22;5625;50.122;19.864;2023-01-08T08:30:46;6.50;99.90
11142;DHT22;5625;50.122;19.864;2023-01-08T08:33:15;6.50;99.90
11142;DHT22;5625;50.122;19.864;2023-01-08T08:35:48;7.10;99.90
11142;DHT22;5625;50.122;19.864;2023-01-08T08:38:17;7.40;99.90
11142;DHT22;5625;50.122;19.864;2023-01-08T08:40:47;7.60;99.90
11142;DHT22;5625;50.122;19.864;2023-01-08T08:43:15;7.80;99.90
11142;DHT22;5625;50.122;19.864;2023-01-08T08:45:43;7.80;99.90
11142;DHT22;5625;50.122;19.864;2023-01-08T08:48:11;8.10;99.90
11142;DHT22;5625;50.122;19.864;2023-01-08T08:50:39;8.20;99.90
11142;DHT22;5625;50.122;19.864;2023-01-08T08:53:09;8.40;99.90
11142;DHT22;5625;50.122;19.864;2023-01-08T08:55:37;8.70;99.90
11142;DHT22;5625;50.122;19.864;2023-01-08T08:58:06;8.90;99.90
11142;DHT22;5625;50.122;19.864;2023-01-08T09:00:38;9.20;99.90
11142;DHT22;5625;50.122;19.864;2023-01-08T09:03:09;9.40;99.90
11142;DHT22;5625;50.122;19.864;2023-01-08T09:05:39;9.40;99.90
11142;DHT22;5625;50.122;19.864;2023-01-08T09:08:10;9.70;99.90
11142;DHT22;5625;50.122;19.864;2023-01-08T09:10:39;9.80;99.90
11142;DHT22;5625;50.122;19.864;2023-01-08T09:13:10;9.80;99.90
11142;DHT22;5625;50.122;19.864;2023-01-08T09:15:38;9.90;99.90
11142;DHT22;5625;50.122;19.864;2023-01-08T09:18:06;9.80;99.90
11142;DHT22;5625;50.122;19.864;2023-01-08T09:20:34;9.50;99.90
11142;DHT22;5625;50.122;19.864;2023-01-08T09:23:03;9.50;99.90
11142;DHT22;5625;50.122;19.864;2023-01-08T09:25:32;9.40;99.90
11142;DHT22;5625;50.122;19.864;2023-01-08T09:28:01;9.50;99.90
11142;DHT22;5625;50.122;19.864;2023-01-08T09:30:29;9.50;99.90
11142;DHT22;5625;50.122;19.864;2023-01-08T09:32:58;9.50;99.90
11142;DHT22;5625;50.122;19.864;2023-01-08T09:35:28;9.10;99.90
11142;DHT22;5625;50.122;19.864;2023-01-08T09:37:57;8.90;99.90
11142;DHT22;5625;50.122;19.864;2023-01-08T09:40:30;8.70;99.90
11142;DHT22;5625;50.122;19.864;2023-01-08T09:43:01;8.80;99.90
11142;DHT22;5625;50.122;19.864;2023-01-08T09:45:33;8.90;99.90
11142;DHT22;5625;50.122;19.864;2023-01-08T09:48:04;8.80;99.90
11142;DHT22;5625;50.122;19.864;2023-01-08T09:50:33;8.80;99.90
11142;DHT22;5625;50.122;19.864;2023-01-08T09:53:03;8.80;99.90
11142;DHT22;5625;50.122;19.864;2023-01-08T09:55:32;8.60;99.90
11142;DHT22;5625;50.122;19.864;2023-01-08T09:58:02;8.50;99.90
11142;DHT22;5625;50.122;19.864;2023-01-08T10:00:31;8.40;99.90
11142;DHT22;5625;50.122;19.864;2023-01-08T10:03:00;8.20;99.90
11142;DHT22;5625;50.122;19.864;2023-01-08T10:05:32;8.20;99.90
11142;DHT22;5625;50.122;19.864;2023-01-08T10:08:00;8.10;99.90
11142;DHT22;5625;50.122;19.864;2023-01-08T10:10:29;8.10;99.90
11142;DHT22;5625;50.122;19.864;2023-01-08T10:12:58;8.10;99.90
11142;DHT22;5625;50.122;19.864;2023-01-08T10:15:28;8.00;99.90
11142;DHT22;5625;50.122;19.864;2023-01-08T10:18:01;7.90;99.90
11142;DHT22;5625;50.122;19.864;2023-01-08T10:20:32;7.80;99.90
11142;DHT22;5625;50.122;19.864;2023-01-08T10:23:09;7.70;99.90
11142;DHT22;5625;50.122;19.864;2023-01-08T10:25:49;7.70;99.90
11142;DHT22;5625;50.122;19.864;2023-01-08T10:28:20;7.60;99.90
11142;DHT22;5625;50.122;19.864;2023-01-08T10:30:53;7.40;99.90
11142;DHT22;5625;50.122;19.864;2023-01-08T10:33:24;7.30;99.90
11142;DHT22;5625;50.122;19.864;2023-01-08T10:35:56;7.30;99.90
11142;DHT22;5625;50.122;19.864;2023-01-08T10:38:27;7.30;99.90
11142;DHT22;5625;50.122;19.864;2023-01-08T10:41:00;7.30;99.90
11142;DHT22;5625;50.122;19.864;2023-01-08T10:43:33;7.30;99.90
11142;DHT22;5625;50.122;19.864;2023-01-08T10:46:05;7.20;99.90
11142;DHT22;5625;50.122;19.864;2023-01-08T10:48:37;7.20;99.90
11142;DHT22;5625;50.122;19.864;2023-01-08T10:51:11;7.10;99.90
11142;DHT22;5625;50.122;19.864;2023-01-08T10:53:41;7.00;99.90
11142;DHT22;5625;50.122;19.864;2023-01-08T10:56:18;6.90;99.90
11142;DHT22;5625;50.122;19.864;2023-01-08T10:58:47;6.80;99.90
11142;DHT22;5625;50.122;19.864;2023-01-08T11:01:21;6.70;99.90
11142;DHT22;5625;50.122;19.864;2023-01-08T11:03:50;6.60;99.90
11142;DHT22;5625;50.122;19.864;2023-01-08T11:06:21;6.60;99.90
11142;DHT22;5625;50.122;19.864;2023-01-08T11:08:51;6.50;99.90
11142;DHT22;5625;50.122;19.864;2023-01-08T11:11:21;6.60;99.90
11142;DHT22;5625;50.122;19.864;2023-01-08T11:13:56;6.60;99.90
11142;DHT22;5625;50.122;19.864;2023-01-08T11:16:34;6.50;99.90
11142;DHT22;5625;50.122;19.864;2023-01-08T11:19:04;6.50;99.90
11142;DHT22;5625;50.122;19.864;2023-01-08T11:21:41;6.40;99.90
11142;DHT22;5625;50.122;19.864;2023-01-08T11:24:17;6.40;99.90
11142;DHT22;5625;50.122;19.864;2023-01-08T11:26:49;6.30;99.90
11142;DHT22;5625;50.122;19.864;2023-01-08T11:29:26;6.40;99.90
11142;DHT22;5625;50.122;19.864;2023-01-08T11:32:14;6.30;99.90
11142;DHT22;5625;50.122;19.864;2023-01-08T11:34:50;6.30;99.90
11142;DHT22;5625;50.122;19.864;2023-01-08T11:37:21;6.30;99.90
11142;DHT22;5625;50.122;19.864;2023-01-08T11:39:50;6.30;99.90
11142;DHT22;5625;50.122;19.864;2023-01-08T11:42:36;6.30;99.90
11142;DHT22;5625;50.122;19.864;2023-01-08T11:45:15;6.20;99.90
11142;DHT22;5625;50.122;19.864;2023-01-08T11:47:55;6.20;99.90
11142;DHT22;5625;50.122;19.864;2023-01-08T11:50:34;6.20;99.90
11142;DHT22;5625;50.122;19.864;2023-01-08T11:53:15;6.20;99.90
11142;DHT22;5625;50.122;19.864;2023-01-08T11:55:51;6.20;99.90
11142;DHT22;5625;50.122;19.864;2023-01-08T11:58:33;6.30;99.90
11142;DHT22;5625;50.122;19.864;2023-01-08T12:01:27;6.20;99.90
11142;DHT22;5625;50.122;19.864;2023-01-08T12:04:24;6.20;99.90
11142;DHT22;5625;50.122;19.864;2023-01-08T12:06:59;6.20;99.90
11142;DHT22;5625;50.122;19.864;2023-01-08T12:09:37;6.20;99.90
11142;DHT22;5625;50.122;19.864;2023-01-08T12:12:17;6.20;99.90
11142;DHT22;5625;50.122;19.864;2023-01-08T12:14:59;6.30;99.90
11142;DHT22;5625;50.122;19.864;2023-01-08T12:20:49;6.30;99.90
11142;DHT22;5625;50.122;19.864;2023-01-08T12:23:36;6.30;99.90
11142;DHT22;5625;50.122;19.864;2023-01-08T12:26:13;6.30;99.90
11142;DHT22;5625;50.122;19.864;2023-01-08T12:29:16;6.30;99.90
11142;DHT22;5625;50.122;19.864;2023-01-08T12:32:14;6.30;99.90
11142;DHT22;5625;50.122;19.864;2023-01-08T12:34:52;6.30;99.90
11142;DHT22;5625;50.122;19.864;2023-01-08T12:37:26;6.30;99.90
11142;DHT22;5625;50.122;19.864;2023-01-08T12:39:59;6.30;99.90
11142;DHT22;5625;50.122;19.864;2023-01-08T12:42:37;6.30;99.90
11142;DHT22;5625;50.122;19.864;2023-01-08T12:45:16;6.40;99.90
11142;DHT22;5625;50.122;19.864;2023-01-08T12:47:49;6.40;99.90
11142;DHT22;5625;50.122;19.864;2023-01-08T12:50:35;6.40;99.90
11142;DHT22;5625;50.122;19.864;2023-01-08T12:53:13;6.40;99.90
11142;DHT22;5625;50.122;19.864;2023-01-08T12:55:51;6.50;99.90
11142;DHT22;5625;50.122;19.864;2023-01-08T12:58:30;6.50;99.90
11142;DHT22;5625;50.122;19.864;2023-01-08T13:01:07;6.50;99.90
11142;DHT22;5625;50.122;19.864;2023-01-08T13:03:38;6.50;99.90
11142;DHT22;5625;50.122;19.864;2023-01-08T13:06:08;6.50;99.90
11142;DHT22;5625;50.122;19.864;2023-01-08T13:08:40;6.60;99.90
11142;DHT22;5625;50.122;19.864;2023-01-08T13:11:11;6.60;99.90
11142;DHT22;5625;50.122;19.864;2023-01-08T13:13:41;6.60;99.90
11142;DHT22;5625;50.122;19.864;2023-01-08T13:16:20;6.60;99.90
11142;DHT22;5625;50.122;19.864;2023-01-08T13:18:51;6.60;99.90
11142;DHT22;5625;50.122;19.864;2023-01-08T13:21:28;6.60;99.90
11142;DHT22;5625;50.122;19.864;2023-01-08T13:24:19;6.60;99.90
11142;DHT22;5625;50.122;19.864;2023-01-08T13:26:51;6.60;99.90
11142;DHT22;5625;50.122;19.864;2023-01-08T13:29:35;6.60;99.90
11142;DHT22;5625;50.122;19.864;2023-01-08T13:32:09;6.60;99.90
11142;DHT22;5625;50.122;19.864;2023-01-08T13:35:01;6.60;99.90
11142;DHT22;5625;50.122;19.864;2023-01-08T13:37:29;6.60;99.90
11142;DHT22;5625;50.122;19.864;2023-01-08T13:39:59;6.60;99.90
11142;DHT22;5625;50.122;19.864;2023-01-08T13:42:30;6.60;99.90
11142;DHT22;5625;50.122;19.864;2023-01-08T13:44:59;6.50;99.90
11142;DHT22;5625;50.122;19.864;2023-01-08T13:47:30;6.50;99.90
11142;DHT22;5625;50.122;19.864;2023-01-08T13:50:00;6.50;99.90
11142;DHT22;5625;50.122;19.864;2023-01-08T13:52:42;6.50;99.90
11142;DHT22;5625;50.122;19.864;2023-01-08T13:55:15;6.50;99.90
11142;DHT22;5625;50.122;19.864;2023-01-08T13:57:47;6.40;99.90
11142;DHT22;5625;50.122;19.864;2023-01-08T14:00:20;6.40;99.90
11142;DHT22;5625;50.122;19.864;2023-01-08T14:02:50;6.30;99.90
11142;DHT22;5625;50.122;19.864;2023-01-08T14:05:24;6.30;99.90
11142;DHT22;5625;50.122;19.864;2023-01-08T14:07:52;6.30;99.90
11142;DHT22;5625;50.122;19.864;2023-01-08T14:10:23;6.20;99.90
11142;DHT22;5625;50.122;19.864;2023-01-08T14:12:54;6.20;99.90
11142;DHT22;5625;50.122;19.864;2023-01-08T14:15:25;6.20;99.90
11142;DHT22;5625;50.122;19.864;2023-01-08T14:17:55;6.20;99.90
11142;DHT22;5625;50.122;19.864;2023-01-08T14:20:32;6.10;99.90
11142;DHT22;5625;50.122;19.864;2023-01-08T14:23:01;6.10;99.90
11142;DHT22;5625;50.122;19.864;2023-01-08T14:25:31;6.00;99.90
11142;DHT22;5625;50.122;19.864;2023-01-08T14:28:01;6.00;99.90
11142;DHT22;5625;50.122;19.864;2023-01-08T14:30:30;6.00;99.90
11142;DHT22;5625;50.122;19.864;2023-01-08T14:32:58;5.90;99.90
11142;DHT22;5625;50.122;19.864;2023-01-08T14:35:32;5.90;99.90
11142;DHT22;5625;50.122;19.864;2023-01-08T14:38:04;5.80;99.90
11142;DHT22;5625;50.122;19.864;2023-01-08T14:40:36;5.80;99.90
11142;DHT22;5625;50.122;19.864;2023-01-08T14:43:08;5.80;99.90
11142;DHT22;5625;50.122;19.864;2023-01-08T14:45:37;5.80;99.90
11142;DHT22;5625;50.122;19.864;2023-01-08T14:48:11;5.70;99.90
11142;DHT22;5625;50.122;19.864;2023-01-08T14:51:00;5.70;99.90
11142;DHT22;5625;50.122;19.864;2023-01-08T14:53:32;5.60;99.90
11142;DHT22;5625;50.122;19.864;2023-01-08T14:56:04;5.50;99.90
11142;DHT22;5625;50.122;19.864;2023-01-08T14:58:36;5.50;99.90
11142;DHT22;5625;50.122;19.864;2023-01-08T15:01:07;5.40;99.90
11142;DHT22;5625;50.122;19.864;2023-01-08T15:03:37;5.40;99.90
11142;DHT22;5625;50.122;19.864;2023-01-08T15:06:07;5.30;99.90
11142;DHT22;5625;50.122;19.864;2023-01-08T15:08:38;5.30;99.90
11142;DHT22;5625;50.122;19.864;2023-01-08T15:11:20;5.30;99.90
11142;DHT22;5625;50.122;19.864;2023-01-08T15:13:52;5.20;99.90
11142;DHT22;5625;50.122;19.864;2023-01-08T15:16:26;5.20;99.90
11142;DHT22;5625;50.122;19.864;2023-01-08T15:19:00;5.20;99.90
11142;DHT22;5625;50.122;19.864;2023-01-08T15:21:30;5.10;99.90
11142;DHT22;5625;50.122;19.864;2023-01-08T15:23:59;5.10;99.90
11142;DHT22;5625;50.122;19.864;2023-01-08T15:26:31;5.10;99.90
11142;DHT22;5625;50.122;19.864;2023-01-08T15:29:03;5.10;99.90
11142;DHT22;5625;50.122;19.864;2023-01-08T15:31:44;5.00;99.90
11142;DHT22;5625;50.122;19.864;2023-01-08T15:34:18;5.00;99.90
11142;DHT22;5625;50.122;19.864;2023-01-08T15:36:46;4.90;99.90
11142;DHT22;5625;50.122;19.864;2023-01-08T15:39:15;4.90;99.90
11142;DHT22;5625;50.122;19.864;2023-01-08T15:41:45;4.90;99.90
11142;DHT22;5625;50.122;19.864;2023-01-08T15:44:30;4.90;99.90
11142;DHT22;5625;50.122;19.864;2023-01-08T15:47:01;4.80;99.90
11142;DHT22;5625;50.122;19.864;2023-01-08T15:49:29;4.80;99.90
11142;DHT22;5625;50.122;19.864;2023-01-08T15:51:57;4.80;99.90
11142;DHT22;5625;50.122;19.864;2023-01-08T15:54:26;4.80;99.90
11142;DHT22;5625;50.122;19.864;2023-01-08T15:56:55;4.80;99.90
11142;DHT22;5625;50.122;19.864;2023-01-08T15:59:23;4.80;99.90
11142;DHT22;5625;50.122;19.864;2023-01-08T16:01:51;4.80;99.90
11142;DHT22;5625;50.122;19.864;2023-01-08T16:04:20;4.80;99.90
11142;DHT22;5625;50.122;19.864;2023-01-08T16:06:52;4.80;99.90
11142;DHT22;5625;50.122;19.864;2023-01-08T16:09:20;4.70;99.90
11142;DHT22;5625;50.122;19.864;2023-01-08T16:11:51;4.70;99.90
11142;DHT22;5625;50.122;19.864;2023-01-08T16:14:20;4.60;99.90
11142;DHT22;5625;50.122;19.864;2023-01-08T16:16:48;4.60;99.90
11142;DHT22;5625;50.122;19.864;2023-01-08T16:19:16;4.60;99.90
11142;DHT22;5625;50.122;19.864;2023-01-08T16:21:46;4.60;99.90
11142;DHT22;5625;50.122;19.864;2023-01-08T16:24:17;4.50;99.90
11142;DHT22;5625;50.122;19.864;2023-01-08T16:26:46;4.60;99.90
11142;DHT22;5625;50.122;19.864;2023-01-08T16:29:14;4.60;99.90
11142;DHT22;5625;50.122;19.864;2023-01-08T16:31:46;4.50;99.90
11142;DHT22;5625;50.122;19.864;2023-01-08T16:34:15;4.50;99.90
11142;DHT22;5625;50.122;19.864;2023-01-08T16:36:43;4.50;99.90
11142;DHT22;5625;50.122;19.864;2023-01-08T16:39:11;4.50;99.90
11142;DHT22;5625;50.122;19.864;2023-01-08T16:41:39;4.40;99.90
11142;DHT22;5625;50.122;19.864;2023-01-08T16:44:16;4.40;99.90
11142;DHT22;5625;50.122;19.864;2023-01-08T16:46:47;4.40;99.90
11142;DHT22;5625;50.122;19.864;2023-01-08T16:49:15;4.30;99.90
11142;DHT22;5625;50.122;19.864;2023-01-08T16:51:43;4.30;99.90
11142;DHT22;5625;50.122;19.864;2023-01-08T16:54:12;4.30;99.90
11142;DHT22;5625;50.122;19.864;2023-01-08T16:56:42;4.20;99.90
11142;DHT22;5625;50.122;19.864;2023-01-08T16:59:10;4.20;99.90
11142;DHT22;5625;50.122;19.864;2023-01-08T17:01:52;4.20;99.90
11142;DHT22;5625;50.122;19.864;2023-01-08T17:04:21;4.20;99.90
11142;DHT22;5625;50.122;19.864;2023-01-08T17:06:51;4.20;99.90
11142;DHT22;5625;50.122;19.864;2023-01-08T17:09:19;4.10;99.90
11142;DHT22;5625;50.122;19.864;2023-01-08T17:11:47;4.20;99.90
11142;DHT22;5625;50.122;19.864;2023-01-08T17:14:15;4.10;99.90
11142;DHT22;5625;50.122;19.864;2023-01-08T17:16:43;4.10;99.90
11142;DHT22;5625;50.122;19.864;2023-01-08T17:19:14;4.10;99.90
11142;DHT22;5625;50.122;19.864;2023-01-08T17:21:48;4.00;99.90
11142;DHT22;5625;50.122;19.864;2023-01-08T17:24:16;4.00;99.90
11142;DHT22;5625;50.122;19.864;2023-01-08T17:26:45;4.00;99.90
11142;DHT22;5625;50.122;19.864;2023-01-08T17:29:14;3.90;99.90
11142;DHT22;5625;50.122;19.864;2023-01-08T17:31:42;3.90;99.90
11142;DHT22;5625;50.122;19.864;2023-01-08T17:34:12;3.90;99.90
11142;DHT22;5625;50.122;19.864;2023-01-08T17:36:42;3.80;99.90
11142;DHT22;5625;50.122;19.864;2023-01-08T17:39:11;3.90;99.90
11142;DHT22;5625;50.122;19.864;2023-01-08T17:41:39;3.80;99.90
11142;DHT22;5625;50.122;19.864;2023-01-08T17:44:25;3.80;99.90
11142;DHT22;5625;50.122;19.864;2023-01-08T17:46:53;3.80;99.90
11142;DHT22;5625;50.122;19.864;2023-01-08T17:49:21;3.70;99.90
11142;DHT22;5625;50.122;19.864;2023-01-08T17:51:53;3.80;99.90
11142;DHT22;5625;50.122;19.864;2023-01-08T17:54:23;3.70;99.90
11142;DHT22;5625;50.122;19.864;2023-01-08T17:56:51;3.70;99.90
11142;DHT22;5625;50.122;19.864;2023-01-08T17:59:20;3.70;99.90
11142;DHT22;5625;50.122;19.864;2023-01-08T18:01:49;3.70;99.90
11142;DHT22;5625;50.122;19.864;2023-01-08T18:04:18;3.70;99.90
11142;DHT22;5625;50.122;19.864;2023-01-08T18:06:46;3.60;99.90
11142;DHT22;5625;50.122;19.864;2023-01-08T18:09:16;3.60;99.90
11142;DHT22;5625;50.122;19.864;2023-01-08T18:11:44;3.60;99.90
11142;DHT22;5625;50.122;19.864;2023-01-08T18:14:12;3.60;99.90
11142;DHT22;5625;50.122;19.864;2023-01-08T18:16:41;3.50;99.90
11142;DHT22;5625;50.122;19.864;2023-01-08T18:19:12;3.50;99.90
11142;DHT22;5625;50.122;19.864;2023-01-08T18:21:41;3.50;99.90
11142;DHT22;5625;50.122;19.864;2023-01-08T18:24:10;3.50;99.90
11142;DHT22;5625;50.122;19.864;2023-01-08T18:26:40;3.50;99.90
11142;DHT22;5625;50.122;19.864;2023-01-08T18:29:08;3.50;99.90
11142;DHT22;5625;50.122;19.864;2023-01-08T18:31:36;3.50;99.90
11142;DHT22;5625;50.122;19.864;2023-01-08T18:34:07;3.50;99.90
11142;DHT22;5625;50.122;19.864;2023-01-08T18:36:35;3.50;99.90
11142;DHT22;5625;50.122;19.864;2023-01-08T18:39:06;3.40;99.90
11142;DHT22;5625;50.122;19.864;2023-01-08T18:41:34;3.40;99.90
11142;DHT22;5625;50.122;19.864;2023-01-08T18:44:20;3.40;99.90
11142;DHT22;5625;50.122;19.864;2023-01-08T18:46:48;3.40;99.90
11142;DHT22;5625;50.122;19.864;2023-01-08T18:49:16;3.40;99.90
11142;DHT22;5625;50.122;19.864;2023-01-08T18:51:45;3.40;99.90
11142;DHT22;5625;50.122;19.864;2023-01-08T18:54:14;3.40;99.90
11142;DHT22;5625;50.122;19.864;2023-01-08T18:56:42;3.40;99.90
11142;DHT22;5625;50.122;19.864;2023-01-08T18:59:15;3.40;99.90
11142;DHT22;5625;50.122;19.864;2023-01-08T19:01:44;3.40;99.90
11142;DHT22;5625;50.122;19.864;2023-01-08T19:04:14;3.30;99.90
11142;DHT22;5625;50.122;19.864;2023-01-08T19:06:43;3.30;99.90
11142;DHT22;5625;50.122;19.864;2023-01-08T19:09:16;3.40;99.90
11142;DHT22;5625;50.122;19.864;2023-01-08T19:11:44;3.30;99.90
11142;DHT22;5625;50.122;19.864;2023-01-08T19:14:13;3.30;99.90
11142;DHT22;5625;50.122;19.864;2023-01-08T19:16:41;3.40;99.90
11142;DHT22;5625;50.122;19.864;2023-01-08T19:19:18;3.40;99.90
11142;DHT22;5625;50.122;19.864;2023-01-08T19:21:46;3.30;99.90
11142;DHT22;5625;50.122;19.864;2023-01-08T19:24:15;3.40;99.90